Time;durP1;ratioP1;P1;durP2;ratioP2;P2;SDS_P1;SDS_P2;PMS_P1;PMS_P2;Temp;Humidity;BMP_temperature;BMP_pressure;BME280_temperature;BME280_humidity;BME280_pressure;Samples;Min_cycle;Max_cycle;Signal;HPM_P1;HPM_P2
2020/04/04 00:01:21;;;;;;;13.6;11.7;;;;;;;6.03;63.66895;940.6861;;;;
2020/04/04 00:03:45;;;;;;;12.6;10.8;;;;;;;5.9;62.63184;940.6769;;;;
2020/04/04 00:06:59;;;;;;;13.7;10.4;;;;;;;5.72;62.70703;940.6114;;;;
2020/04/04 00:09:24;;;;;;;14.7;10.6;;;;;;;5.59;63.01563;940.6418;;;;
2020/04/04 00:11:54;;;;;;;13.1;10.2;;;;;;;5.43;63.37598;940.6969;;;;
2020/04/04 00:14:19;;;;;;;11.9;10.2;;;;;;;5.43;63.47754;940.7064;;;;
2020/04/04 00:16:45;;;;;;;13.4;10.6;;;;;;;5.39;63.51563;940.6811;;;;
2020/04/04 00:19:10;;;;;;;13.4;9.9;;;;;;;5.1;64.46484;940.701;;;;
2020/04/04 00:21:35;;;;;;;13;10.8;;;;;;;5;64.90039;940.6895;;;;
2020/04/04 00:24:00;;;;;;;12.8;10.8;;;;;;;5.18;64.64746;940.76;;;;
2020/04/04 00:26:25;;;;;;;12.5;10;;;;;;;5.22;64.42773;940.8058;;;;
2020/04/04 00:28:50;;;;;;;13.8;10.2;;;;;;;5.3;64.27051;940.8384;;;;
2020/04/04 00:31:15;;;;;;;14.1;10.5;;;;;;;5.36;63.89551;940.8105;;;;
2020/04/04 00:33:41;;;;;;;12.2;10.1;;;;;;;5.28;64.13086;940.697;;;;
2020/04/04 00:37:05;;;;;;;12.7;10.5;;;;;;;5.28;63.97363;940.8344;;;;
2020/04/04 00:38:31;;;;;;;14.1;10.5;;;;;;;5.28;63.84961;940.8108;;;;
2020/04/04 00:41:42;;;;;;;11.8;9.8;;;;;;;5.19;64.14063;940.8613;;;;
2020/04/04 00:44:07;;;;;;;14.3;11.1;;;;;;;5.11;65.53711;940.8466;;;;
2020/04/04 00:46:32;;;;;;;12.8;11.4;;;;;;;5.08;64.99219;940.8544;;;;
2020/04/04 00:48:57;;;;;;;14.8;11.6;;;;;;;5.03;64.5791;940.9119;;;;
2020/04/04 00:51:22;;;;;;;13.6;12;;;;;;;5.09;64.42969;940.9139;;;;
2020/04/04 00:53:48;;;;;;;13.6;11.7;;;;;;;5;64.59766;940.9454;;;;
2020/04/04 00:56:13;;;;;;;15.1;11.5;;;;;;;4.91;64.93164;940.9683;;;;
2020/04/04 00:58:38;;;;;;;13.5;10.7;;;;;;;4.94;64.97168;940.9614;;;;
2020/04/04 01:01:03;;;;;;;13.6;10.9;;;;;;;4.89;64.96289;940.8926;;;;
2020/04/04 01:03:29;;;;;;;14.2;11.4;;;;;;;4.83;64.94336;940.9151;;;;
2020/04/04 01:05:54;;;;;;;15.2;12;;;;;;;4.72;65.15234;940.8824;;;;
2020/04/04 01:08:19;;;;;;;14.6;11.8;;;;;;;4.81;65.10742;940.8439;;;;
2020/04/04 01:10:44;;;;;;;16.1;12;;;;;;;4.82;64.85059;940.8317;;;;
2020/04/04 01:13:09;;;;;;;14.6;11.9;;;;;;;4.85;64.66504;940.806;;;;
2020/04/04 01:15:34;;;;;;;14;11.9;;;;;;;4.94;64.55273;940.8365;;;;
2020/04/04 01:18:00;;;;;;;13.9;11.3;;;;;;;4.89;64.67188;940.8794;;;;
2020/04/04 01:20:25;;;;;;;13;10.7;;;;;;;4.86;64.63086;940.8276;;;;
2020/04/04 01:22:50;;;;;;;13.8;11;;;;;;;4.79;64.98145;940.8295;;;;
2020/04/04 01:25:15;;;;;;;12.5;11.2;;;;;;;4.72;65.14063;940.813;;;;
2020/04/04 01:27:40;;;;;;;13.9;11.3;;;;;;;4.65;65.35352;940.7996;;;;
2020/04/04 01:30:05;;;;;;;14.5;11.2;;;;;;;4.67;64.97559;940.8428;;;;
2020/04/04 01:32:31;;;;;;;15.9;12.2;;;;;;;4.46;65.77539;940.8128;;;;
2020/04/04 01:34:55;;;;;;;16.5;12.2;;;;;;;3.64;68.94141;940.9102;;;;
2020/04/04 01:37:20;;;;;;;17.9;13.1;;;;;;;3.93;68.12305;940.9208;;;;
2020/04/04 01:39:49;;;;;;;14.4;12.1;;;;;;;4.06;67.38965;940.9419;;;;
2020/04/04 01:42:11;;;;;;;14.7;12.5;;;;;;;3.92;67.77246;940.8795;;;;
2020/04/04 01:44:36;;;;;;;18.7;12.8;;;;;;;3.84;68.15332;940.8495;;;;
2020/04/04 01:47:01;;;;;;;16.8;14;;;;;;;3.69;68.66797;940.8568;;;;
2020/04/04 01:49:26;;;;;;;18.8;14.2;;;;;;;3.64;68.92871;940.865;;;;
2020/04/04 01:51:52;;;;;;;17;13.3;;;;;;;3.51;69.51563;940.8572;;;;
2020/04/04 01:54:17;;;;;;;16.2;13.7;;;;;;;3.31;70.44824;940.8656;;;;
2020/04/04 01:56:42;;;;;;;17.5;13.2;;;;;;;2.98;72.2002;940.93;;;;
2020/04/04 01:59:07;;;;;;;15.3;12.5;;;;;;;3.05;72.07617;940.7933;;;;
2020/04/04 02:01:32;;;;;;;15.8;12.3;;;;;;;3.36;70.77051;940.8887;;;;
2020/04/04 02:03:57;;;;;;;13.9;12.2;;;;;;;3.46;70.13574;940.8766;;;;
2020/04/04 02:06:22;;;;;;;15.7;12;;;;;;;3.51;70.07715;940.9227;;;;
2020/04/04 02:08:47;;;;;;;14.7;12.2;;;;;;;3.68;69.4082;940.9437;;;;
2020/04/04 02:11:12;;;;;;;16.4;12.3;;;;;;;3.63;69.23242;940.9365;;;;
2020/04/04 02:13:38;;;;;;;16.6;12.1;;;;;;;3.34;70.19434;940.9398;;;;
2020/04/04 02:16:03;;;;;;;23.6;12.7;;;;;;;3.41;70.25098;940.8997;;;;
2020/04/04 02:18:28;;;;;;;16.9;12;;;;;;;3.46;69.84473;940.9192;;;;
2020/04/04 02:20:53;;;;;;;14.3;11.8;;;;;;;3.3;70.66016;940.9517;;;;
2020/04/04 02:23:18;;;;;;;15.7;12.3;;;;;;;3.28;70.60059;941.0139;;;;
2020/04/04 02:25:43;;;;;;;15.6;12.2;;;;;;;3.28;70.69043;941.0179;;;;
2020/04/04 02:28:08;;;;;;;16.2;12;;;;;;;3.23;70.74902;941.048;;;;
2020/04/04 02:30:33;;;;;;;17.3;12.5;;;;;;;2.78;72.75977;941.0958;;;;
2020/04/04 02:32:58;;;;;;;16;12.2;;;;;;;3.12;71.34863;941.0776;;;;
2020/04/04 02:35:23;;;;;;;16.3;12.5;;;;;;;3.36;70.19922;941.0613;;;;
2020/04/04 02:37:48;;;;;;;15.8;12.7;;;;;;;3.39;69.98828;940.9417;;;;
2020/04/04 02:40:14;;;;;;;15.1;13.2;;;;;;;3.25;70.31445;941.1313;;;;
2020/04/04 02:42:39;;;;;;;18.6;13.1;;;;;;;3.2;70.49805;941.1219;;;;
2020/04/04 02:45:04;;;;;;;17.4;13.4;;;;;;;3.29;70.0957;941.1525;;;;
2020/04/04 02:49:54;;;;;;;18.3;12.9;;;;;;;3.23;69.92969;941.1746;;;;
2020/04/04 02:52:28;;;;;;;18.9;13.5;;;;;;;3.13;70.40723;941.1356;;;;
2020/04/04 02:54:44;;;;;;;18.2;13.2;;;;;;;2.95;71.42969;941.1031;;;;
2020/04/04 02:57:09;;;;;;;18.1;13.6;;;;;;;2.9;71.68164;941.0999;;;;
2020/04/04 02:59:34;;;;;;;17.3;13.5;;;;;;;3;71.2168;941.0909;;;;
2020/04/04 03:02:00;;;;;;;16.1;13;;;;;;;3.01;71.12793;941.1345;;;;
2020/04/04 03:04:25;;;;;;;15.3;12.9;;;;;;;3.02;70.93848;941.1186;;;;
2020/04/04 03:06:50;;;;;;;19;13.7;;;;;;;2.93;71.31445;941.008;;;;
2020/04/04 03:09:15;;;;;;;17.1;14.1;;;;;;;2.87;71.66504;941.1088;;;;
2020/04/04 03:11:40;;;;;;;17.9;13.6;;;;;;;2.92;71.44922;941.1398;;;;
2020/04/04 03:14:05;;;;;;;17.2;14;;;;;;;3.01;70.82715;941.1669;;;;
2020/04/04 03:16:30;;;;;;;16.9;13.8;;;;;;;3;70.65527;941.1638;;;;
2020/04/04 03:18:55;;;;;;;18.6;14.2;;;;;;;2.98;70.60645;941.2186;;;;
2020/04/04 03:21:20;;;;;;;19;14.5;;;;;;;3.04;70.14551;941.2489;;;;
2020/04/04 03:23:45;;;;;;;18;14.8;;;;;;;3.05;70.16895;941.2542;;;;
2020/04/04 03:26:11;;;;;;;20.5;15.4;;;;;;;2.93;70.81152;941.2481;;;;
2020/04/04 03:28:36;;;;;;;22.2;15.1;;;;;;;2.83;70.95215;941.2014;;;;
2020/04/04 03:31:01;;;;;;;21.5;14.4;;;;;;;2.65;72.16602;941.2406;;;;
2020/04/04 03:33:26;;;;;;;18.1;15;;;;;;;2.53;72.70508;941.245;;;;
2020/04/04 03:35:51;;;;;;;18.8;15.5;;;;;;;2.46;73.00781;941.1824;;;;
2020/04/04 03:38:16;;;;;;;19.3;16.2;;;;;;;1.91;75.45117;941.0834;;;;
2020/04/04 03:40:41;;;;;;;20.1;16.6;;;;;;;1.76;76.28906;941.075;;;;
2020/04/04 03:43:06;;;;;;;19;15.7;;;;;;;1.76;76.5332;941.1303;;;;
2020/04/04 03:45:31;;;;;;;19.1;15.8;;;;;;;1.75;76.55371;941.1364;;;;
2020/04/04 03:47:57;;;;;;;20.7;16.2;;;;;;;1.67;76.94238;941.1505;;;;
2020/04/04 03:50:22;;;;;;;21.1;16.6;;;;;;;1.6;77.30859;941.175;;;;
2020/04/04 03:52:47;;;;;;;20.7;16.2;;;;;;;1.55;77.75879;941.1738;;;;
2020/04/04 03:55:12;;;;;;;20.4;16.5;;;;;;;1.73;76.85254;941.1331;;;;
2020/04/04 03:57:37;;;;;;;23.1;17.6;;;;;;;1.69;77.14844;941.1091;;;;
2020/04/04 04:00:02;;;;;;;21.1;17.2;;;;;;;1.82;76.70117;941.1437;;;;
2020/04/04 04:02:33;;;;;;;23.5;17.9;;;;;;;1.86;76.53027;941.1726;;;;
2020/04/04 04:04:55;;;;;;;23.7;17.6;;;;;;;2.09;75.40723;941.1674;;;;
2020/04/04 04:07:20;;;;;;;22.5;17.7;;;;;;;2.34;74.27441;941.1875;;;;
2020/04/04 04:09:45;;;;;;;22.8;18;;;;;;;2.45;73.5332;941.1883;;;;
2020/04/04 04:12:10;;;;;;;22.6;17.3;;;;;;;2.52;73.0752;941.2486;;;;
2020/04/04 04:14:36;;;;;;;23.5;17;;;;;;;2.54;72.83105;941.2095;;;;
2020/04/04 04:17:01;;;;;;;21.8;16.3;;;;;;;2.54;72.68457;941.2634;;;;
2020/04/04 04:19:26;;;;;;;22.5;17;;;;;;;2.46;72.79492;941.2028;;;;
2020/04/04 04:21:51;;;;;;;22.1;16.6;;;;;;;2.29;73.29199;941.2285;;;;
2020/04/04 04:24:16;;;;;;;20.7;16.2;;;;;;;2.13;74.03613;941.2469;;;;
2020/04/04 04:26:41;;;;;;;19.8;16.4;;;;;;;2.13;74.03809;941.2715;;;;
2020/04/04 04:29:07;;;;;;;21.5;16.9;;;;;;;2.22;73.67285;941.356;;;;
2020/04/04 04:31:32;;;;;;;20.3;16.6;;;;;;;2.31;73.30664;941.3098;;;;
2020/04/04 04:33:57;;;;;;;21.3;17;;;;;;;1.93;74.70703;941.3766;;;;
2020/04/04 04:36:22;;;;;;;20.6;16.8;;;;;;;1.68;76.33008;941.3892;;;;
2020/04/04 04:38:47;;;;;;;22.7;17.5;;;;;;;1.89;74.99121;941.4595;;;;
2020/04/04 04:41:14;;;;;;;22.6;17.1;;;;;;;1.92;74.95117;941.4289;;;;
2020/04/04 04:43:38;;;;;;;22.8;17.9;;;;;;;1.74;75.93848;941.3965;;;;
2020/04/04 04:46:03;;;;;;;24.9;18.3;;;;;;;1.73;76.13672;941.4345;;;;
2020/04/04 04:48:28;;;;;;;22.5;18.5;;;;;;;1.65;76.54883;941.4317;;;;
2020/04/04 04:50:53;;;;;;;23.7;17.8;;;;;;;1.69;76.55566;941.4167;;;;
2020/04/04 04:53:18;;;;;;;25.5;18.7;;;;;;;1.57;77.125;941.3998;;;;
2020/04/04 04:55:43;;;;;;;24.3;18.7;;;;;;;1.68;76.57617;941.4856;;;;
2020/04/04 04:58:09;;;;;;;27.3;18.5;;;;;;;1.7;76.41016;941.4973;;;;
2020/04/04 05:00:36;;;;;;;25.2;18.2;;;;;;;1.77;76.0332;941.5345;;;;
2020/04/04 05:02:59;;;;;;;22.6;18.1;;;;;;;1.74;76.06055;941.558;;;;
2020/04/04 05:05:24;;;;;;;29.4;19.9;;;;;;;1.57;76.61133;941.63;;;;
2020/04/04 05:07:49;;;;;;;30;19.4;;;;;;;1.54;76.86328;941.6172;;;;
2020/04/04 05:10:15;;;;;;;22.5;18;;;;;;;1.45;77.42969;941.6611;;;;
2020/04/04 05:12:40;;;;;;;25.2;18;;;;;;;1.49;77.48047;941.67;;;;
2020/04/04 05:15:05;;;;;;;24.3;17.7;;;;;;;1.82;76.25391;941.6312;;;;
2020/04/04 05:17:30;;;;;;;24.3;18.3;;;;;;;1.84;75.64355;941.7178;;;;
2020/04/04 05:19:55;;;;;;;28.1;18.8;;;;;;;1.71;76.50098;941.723;;;;
2020/04/04 05:22:21;;;;;;;25.2;18;;;;;;;1.48;77.40137;941.7394;;;;
2020/04/04 05:24:46;;;;;;;26.5;18.5;;;;;;;1.58;77.18262;941.7745;;;;
2020/04/04 05:27:11;;;;;;;24.5;18.5;;;;;;;1.53;77.44238;941.7816;;;;
2020/04/04 05:29:36;;;;;;;28.5;19.2;;;;;;;1.47;78.05859;941.83;;;;
2020/04/04 05:32:01;;;;;;;29.5;20.5;;;;;;;1.49;78.17383;941.8403;;;;
2020/04/04 05:34:27;;;;;;;31.9;20;;;;;;;1.68;77.7168;941.889;;;;
2020/04/04 05:36:52;;;;;;;28.1;19.3;;;;;;;2.12;75.78125;941.9024;;;;
2020/04/04 05:39:17;;;;;;;32.5;19.5;;;;;;;2.39;74.73145;941.9025;;;;
2020/04/04 05:41:42;;;;;;;22.2;16.5;;;;;;;2.57;73.54199;941.9001;;;;
2020/04/04 05:44:07;;;;;;;21.4;16.8;;;;;;;2.83;73.04883;941.9286;;;;
2020/04/04 05:46:32;;;;;;;25;15.7;;;;;;;3.31;71.05469;941.9028;;;;
2020/04/04 05:48:57;;;;;;;22.3;13.9;;;;;;;3.98;68.49023;941.9719;;;;
2020/04/04 05:51:26;;;;;;;19.8;14.6;;;;;;;4.25;67.31836;941.9099;;;;
2020/04/04 05:53:54;;;;;;;21.8;14.8;;;;;;;4.49;66.34375;941.9849;;;;
2020/04/04 05:56:22;;;;;;;22.1;13.8;;;;;;;4.6;65.44824;941.9102;;;;
2020/04/04 05:58:42;;;;;;;29.3;17.9;;;;;;;4.57;65.39941;941.9825;;;;
2020/04/04 06:01:04;;;;;;;15.2;13.5;;;;;;;4.55;65.56543;941.9359;;;;
2020/04/04 06:03:29;;;;;;;19.9;12.9;;;;;;;4.94;64.53223;941.9581;;;;
2020/04/04 06:05:54;;;;;;;25.4;12.9;;;;;;;5.38;62.75977;941.9465;;;;
2020/04/04 06:08:19;;;;;;;17.3;12.5;;;;;;;6.03;60.92188;941.9166;;;;
2020/04/04 06:10:44;;;;;;;17.4;11.7;;;;;;;6.93;57.98242;941.8519;;;;
2020/04/04 06:13:09;;;;;;;16.4;12.1;;;;;;;7.55;57.15918;941.9578;;;;
2020/04/04 06:15:34;;;;;;;16;11.7;;;;;;;7.79;54.96777;941.9779;;;;
2020/04/04 06:17:59;;;;;;;16.4;11.7;;;;;;;8.89;52.48047;941.9948;;;;
2020/04/04 06:20:24;;;;;;;15.7;11.5;;;;;;;9.2;50.44727;941.9364;;;;
2020/04/04 06:22:50;;;;;;;18;12.1;;;;;;;9.79;49.2168;941.9445;;;;
2020/04/04 06:25:15;;;;;;;17.2;12.1;;;;;;;9.74;48.46973;941.9899;;;;
2020/04/04 06:27:40;;;;;;;17.4;12.2;;;;;;;9.54;49.0625;941.9722;;;;
2020/04/04 06:30:05;;;;;;;17;11.5;;;;;;;10.48;47.52539;941.9688;;;;
2020/04/04 06:32:30;;;;;;;20.8;12.3;;;;;;;11.09;45.45508;941.9672;;;;
2020/04/04 06:34:55;;;;;;;21;12;;;;;;;10.35;46.50684;942.0388;;;;
2020/04/04 06:37:21;;;;;;;19.7;12.3;;;;;;;10.33;47.40527;942.1197;;;;
2020/04/04 06:39:47;;;;;;;17.5;12;;;;;;;10.64;46.40137;942.0862;;;;
2020/04/04 06:42:11;;;;;;;17.2;11.8;;;;;;;10.77;45.72852;942.0722;;;;
2020/04/04 06:44:36;;;;;;;18.2;12.1;;;;;;;11.29;44.58301;942.1136;;;;
2020/04/04 06:47:02;;;;;;;18.9;12.8;;;;;;;11.61;43.7002;942.0966;;;;
2020/04/04 06:49:27;;;;;;;15.2;11.6;;;;;;;12.83;41.18359;942.1881;;;;
2020/04/04 06:51:52;;;;;;;16.8;11.7;;;;;;;12.36;41.67871;942.17;;;;
2020/04/04 06:54:17;;;;;;;14.3;11;;;;;;;12.65;40.09863;942.1738;;;;
2020/04/04 06:56:43;;;;;;;15.7;11.2;;;;;;;12.46;40.70117;942.1655;;;;
2020/04/04 06:59:08;;;;;;;16.7;11.5;;;;;;;13.45;38.71387;942.1562;;;;
2020/04/04 07:01:33;;;;;;;15;11.6;;;;;;;13.61;38.07129;942.1152;;;;
2020/04/04 07:03:58;;;;;;;20.6;12.1;;;;;;;12.54;40.69727;942.1702;;;;
2020/04/04 07:06:24;;;;;;;18.2;11.7;;;;;;;13.33;39.4502;942.0856;;;;
2020/04/04 07:08:49;;;;;;;15.8;12.3;;;;;;;12.85;39.7168;942.2219;;;;
2020/04/04 07:11:14;;;;;;;14.7;11.9;;;;;;;12.85;39.6123;942.1939;;;;
2020/04/04 07:13:39;;;;;;;21.3;11.7;;;;;;;14.36;37.05566;942.2008;;;;
2020/04/04 07:16:04;;;;;;;13.8;11.6;;;;;;;14.05;36.85547;942.1975;;;;
2020/04/04 07:18:29;;;;;;;16.7;11.6;;;;;;;14.58;36.12891;942.1934;;;;
2020/04/04 07:20:54;;;;;;;13.4;11.4;;;;;;;13.51;38.06348;942.19;;;;
2020/04/04 07:23:20;;;;;;;13.4;11.1;;;;;;;13.61;38.15332;942.22;;;;
2020/04/04 07:25:45;;;;;;;15.6;10.8;;;;;;;14.45;36.60156;942.2062;;;;
2020/04/04 07:28:10;;;;;;;14.2;11.3;;;;;;;14.77;35.56738;942.1858;;;;
2020/04/04 07:30:35;;;;;;;12.9;10.4;;;;;;;15.84;34.30273;942.202;;;;
2020/04/04 07:33:00;;;;;;;11.8;10.3;;;;;;;17.33;32.4834;942.1668;;;;
2020/04/04 07:35:25;;;;;;;14;11;;;;;;;16.39;32.41406;942.1264;;;;
2020/04/04 07:37:51;;;;;;;15.9;11.3;;;;;;;15.59;33.96094;942.0547;;;;
2020/04/04 07:40:16;;;;;;;13.1;10.5;;;;;;;17.61;31.4248;942.1158;;;;
2020/04/04 07:42:42;;;;;;;14.3;10.1;;;;;;;17.34;31.3584;942.0773;;;;
2020/04/04 07:45:07;;;;;;;12.7;10.2;;;;;;;18.78;29.69238;942.1135;;;;
2020/04/04 07:47:33;;;;;;;13.5;10.1;;;;;;;19.65;27.89844;942.057;;;;
2020/04/04 07:50:05;;;;;;;14.9;9.8;;;;;;;20.8;27.4209;942.1367;;;;
2020/04/04 07:52:34;;;;;;;10.9;9.1;;;;;;;21.44;25.58789;942.1408;;;;
2020/04/04 07:55:00;;;;;;;14;9.1;;;;;;;21.28;25.56738;942.1099;;;;
2020/04/04 07:57:28;;;;;;;10.6;9.5;;;;;;;21.54;25.35938;942.0733;;;;
2020/04/04 07:59:54;;;;;;;11.7;9.2;;;;;;;22.58;24.12793;942.1027;;;;
2020/04/04 08:02:27;;;;;;;9.9;8.5;;;;;;;24.01;22.13379;942.0767;;;;
2020/04/04 08:04:50;;;;;;;10.6;8.6;;;;;;;24.83;21.58496;942.1172;;;;
2020/04/04 08:07:30;;;;;;;10.2;8.4;;;;;;;25.32;20.55664;942.1285;;;;
2020/04/04 08:09:42;;;;;;;9.6;8.6;;;;;;;24.47;21.40234;942.1178;;;;
2020/04/04 08:12:08;;;;;;;11;9;;;;;;;23.98;23.22656;942.0964;;;;
2020/04/04 08:14:34;;;;;;;11;8.7;;;;;;;25.04;22.39648;942.1487;;;;
2020/04/04 08:16:59;;;;;;;9.9;8.9;;;;;;;25.54;21.87891;942.1594;;;;
2020/04/04 08:19:23;;;;;;;10.8;9;;;;;;;25.66;20.91602;942.1196;;;;
2020/04/04 08:21:48;;;;;;;10.1;8.4;;;;;;;26.55;19.77344;942.146;;;;
2020/04/04 08:24:18;;;;;;;10.8;8.3;;;;;;;26.61;20.16602;942.1205;;;;
2020/04/04 08:26:38;;;;;;;9.5;8.6;;;;;;;26.12;19.62402;942.1233;;;;
2020/04/04 08:29:04;;;;;;;10.3;8.9;;;;;;;26.04;20.08203;942.0997;;;;
2020/04/04 08:31:32;;;;;;;11.2;9.6;;;;;;;26.26;19.77246;942.025;;;;
2020/04/04 08:33:54;;;;;;;11.3;10.1;;;;;;;26.77;19.83008;942.0765;;;;
2020/04/04 08:36:24;;;;;;;15.5;11.4;;;;;;;27.07;19.00195;942.098;;;;
2020/04/04 08:38:47;;;;;;;14.1;11.9;;;;;;;27.22;19.04395;942.1292;;;;
2020/04/04 08:41:09;;;;;;;14.4;12.8;;;;;;;26.82;19.27539;942.0815;;;;
2020/04/04 08:43:34;;;;;;;12.5;11.2;;;;;;;26.15;19.83789;942.1481;;;;
2020/04/04 08:45:59;;;;;;;12.1;10.4;;;;;;;25.13;20.37109;942.1557;;;;
2020/04/04 08:48:24;;;;;;;11.7;10.3;;;;;;;24.29;21.67578;942.1456;;;;
2020/04/04 08:50:50;;;;;;;12.7;10;;;;;;;24.16;21.54004;942.1462;;;;
2020/04/04 08:53:15;;;;;;;11.6;10.2;;;;;;;23.66;23.15137;942.1866;;;;
2020/04/04 08:55:40;;;;;;;13.4;11.3;;;;;;;23.66;22.63379;942.2297;;;;
2020/04/04 08:58:06;;;;;;;13.9;11.5;;;;;;;23.04;23.22461;942.1633;;;;
2020/04/04 09:00:30;;;;;;;12.8;11;;;;;;;23.36;22.88965;942.2324;;;;
2020/04/04 09:02:56;;;;;;;11.6;10.4;;;;;;;23.36;22.93652;942.1649;;;;
2020/04/04 09:05:21;;;;;;;11.9;10.7;;;;;;;23.11;23.27539;942.1495;;;;
2020/04/04 09:07:46;;;;;;;13.1;11.2;;;;;;;23.09;23.58008;942.1582;;;;
2020/04/04 09:10:11;;;;;;;11.6;10.4;;;;;;;23.17;23.65527;942.0938;;;;
2020/04/04 09:12:36;;;;;;;11.6;10.4;;;;;;;22.49;24.63965;942.0964;;;;
2020/04/04 09:15:01;;;;;;;11.5;10.3;;;;;;;22.37;24.78516;942.1867;;;;
2020/04/04 09:17:41;;;;;;;11.8;9.8;;;;;;;22.92;24.14648;942.1529;;;;
2020/04/04 09:19:51;;;;;;;11.8;10.3;;;;;;;22.63;24.8584;942.1298;;;;
2020/04/04 09:22:17;;;;;;;12.7;11.1;;;;;;;21.67;26.56152;942.1178;;;;
2020/04/04 09:24:42;;;;;;;13.2;11.1;;;;;;;21.16;26.71777;942.1213;;;;
2020/04/04 09:27:06;;;;;;;12.9;10.8;;;;;;;21.01;26.89648;942.1406;;;;
2020/04/04 09:29:32;;;;;;;13.6;10.7;;;;;;;20.5;27.40234;942.0107;;;;
2020/04/04 09:31:57;;;;;;;13.8;11.6;;;;;;;19.84;28.67969;942.0746;;;;
2020/04/04 09:34:22;;;;;;;13.7;11.5;;;;;;;20.19;29.19238;942.0798;;;;
2020/04/04 09:36:47;;;;;;;13.5;11.5;;;;;;;20.23;28.14453;942.0201;;;;
2020/04/04 09:39:12;;;;;;;15.1;11.5;;;;;;;20.25;29.16113;942.1191;;;;
2020/04/04 09:41:37;;;;;;;14.7;12.1;;;;;;;19.87;29.24219;942.0577;;;;
2020/04/04 09:44:02;;;;;;;14.9;11.4;;;;;;;19.5;29.52051;942.0559;;;;
2020/04/04 09:46:27;;;;;;;15;11.3;;;;;;;19.7;28.79883;942.0883;;;;
2020/04/04 09:48:53;;;;;;;14.6;11.2;;;;;;;19.76;28.97754;942.0953;;;;
2020/04/04 09:51:18;;;;;;;13.1;11.1;;;;;;;20.46;27.27246;942.1069;;;;
2020/04/04 09:53:44;;;;;;;13.6;10.9;;;;;;;20.45;28.78906;942.0619;;;;
2020/04/04 09:56:09;;;;;;;13.1;11.1;;;;;;;20.96;28.05078;942.0683;;;;
2020/04/04 09:58:35;;;;;;;12.7;11.4;;;;;;;20.86;27.03906;941.993;;;;
2020/04/04 10:01:00;;;;;;;13.9;11.4;;;;;;;20.54;27.84961;942.0041;;;;
2020/04/04 10:03:25;;;;;;;13.4;11.1;;;;;;;20.64;27.21289;941.9469;;;;
2020/04/04 10:05:51;;;;;;;12.5;11.3;;;;;;;20.3;28.79102;941.9886;;;;
2020/04/04 10:08:16;;;;;;;13.3;10.9;;;;;;;20.95;28.2959;941.9543;;;;
2020/04/04 10:10:41;;;;;;;14.3;11.2;;;;;;;20.85;28.14844;941.8427;;;;
2020/04/04 10:13:06;;;;;;;13.6;12.1;;;;;;;20.42;28.85742;941.9063;;;;
2020/04/04 10:15:31;;;;;;;13;11.3;;;;;;;20.06;29.66211;941.8519;;;;
2020/04/04 10:17:56;;;;;;;12.9;11.3;;;;;;;20.12;29.32813;941.8959;;;;
2020/04/04 10:20:21;;;;;;;16.3;11.2;;;;;;;20;28.71387;941.8125;;;;
2020/04/04 10:22:46;;;;;;;15.4;11;;;;;;;19.7;29.63867;941.8508;;;;
2020/04/04 10:25:11;;;;;;;12.7;11.3;;;;;;;20.54;27.87207;941.8633;;;;
2020/04/04 10:27:36;;;;;;;12.1;10.5;;;;;;;20.92;28.3291;941.8273;;;;
2020/04/04 10:30:02;;;;;;;13;11.3;;;;;;;19.92;29.61816;941.8427;;;;
2020/04/04 10:32:27;;;;;;;12.4;11;;;;;;;20.09;29.87402;941.9024;;;;
2020/04/04 10:34:53;;;;;;;13.9;11.1;;;;;;;20.57;30.08203;941.8392;;;;
2020/04/04 10:37:20;;;;;;;12.1;10.8;;;;;;;20.93;28.94922;941.8438;;;;
2020/04/04 10:39:45;;;;;;;13.5;11.5;;;;;;;20.89;28.92285;941.8547;;;;
2020/04/04 10:42:10;;;;;;;12.8;11.3;;;;;;;20.95;29.55859;941.7834;;;;
2020/04/04 10:44:36;;;;;;;13.8;11.5;;;;;;;20.44;30.73926;941.7587;;;;
2020/04/04 10:47:00;;;;;;;14.2;11.5;;;;;;;20.47;28.84863;941.6909;;;;
2020/04/04 10:49:25;;;;;;;15.3;12.1;;;;;;;19.89;30.6084;941.6774;;;;
2020/04/04 10:51:50;;;;;;;16.1;11.5;;;;;;;20.93;28.3291;941.6481;;;;
2020/04/04 10:54:16;;;;;;;13.9;11.7;;;;;;;20.92;29.60352;941.6111;;;;
2020/04/04 10:56:40;;;;;;;15.4;11.6;;;;;;;21.19;28.04102;941.6345;;;;
2020/04/04 10:59:06;;;;;;;13;11.1;;;;;;;22.16;26.97852;941.5677;;;;
2020/04/04 11:01:30;;;;;;;14;12;;;;;;;21.84;27.8252;941.5167;;;;
2020/04/04 11:03:56;;;;;;;14.9;11.9;;;;;;;21.2;28.56934;941.5686;;;;
2020/04/04 11:06:21;;;;;;;13.4;11.8;;;;;;;20.11;29.87598;941.5081;;;;
2020/04/04 11:08:47;;;;;;;14;12.5;;;;;;;19.94;30.34277;941.5415;;;;
2020/04/04 11:11:11;;;;;;;14.2;11.6;;;;;;;20.73;29.00586;941.4333;;;;
2020/04/04 11:13:38;;;;;;;15.5;11.8;;;;;;;20.4;29.41699;941.4338;;;;
2020/04/04 11:16:02;;;;;;;13.5;11.1;;;;;;;21.46;27.49707;941.3711;;;;
2020/04/04 11:18:27;;;;;;;12.8;11.4;;;;;;;22.18;26.87402;941.4114;;;;
2020/04/04 11:20:52;;;;;;;15.8;11.2;;;;;;;22.36;26.52051;941.3569;;;;
2020/04/04 11:23:18;;;;;;;15.2;11.6;;;;;;;20.96;28.0625;941.3752;;;;
2020/04/04 11:25:43;;;;;;;12.6;11.3;;;;;;;20.84;29.11816;941.3314;;;;
2020/04/04 11:28:07;;;;;;;12.9;10.3;;;;;;;21.55;26.57813;941.3337;;;;
2020/04/04 11:30:33;;;;;;;13.3;11;;;;;;;21.95;27.9375;941.3369;;;;
2020/04/04 11:32:58;;;;;;;12.5;10.6;;;;;;;22.04;27.9668;941.3329;;;;
2020/04/04 11:35:23;;;;;;;14.1;11.1;;;;;;;21.73;27.88867;941.2082;;;;
2020/04/04 11:37:48;;;;;;;16;10.7;;;;;;;22.56;27.07227;941.3028;;;;
2020/04/04 11:40:13;;;;;;;16.3;11.2;;;;;;;22.46;27.42969;941.3232;;;;
2020/04/04 11:42:38;;;;;;;12.2;10.4;;;;;;;23.24;24.19922;941.3045;;;;
2020/04/04 11:45:03;;;;;;;13;10.6;;;;;;;22.41;25.51563;941.2991;;;;
2020/04/04 11:47:28;;;;;;;13;10.5;;;;;;;21.63;26.80469;941.2386;;;;
2020/04/04 11:49:53;;;;;;;12.1;10.7;;;;;;;21.83;26.73535;941.3306;;;;
2020/04/04 11:52:22;;;;;;;12.2;10.3;;;;;;;22.59;25.87695;941.2947;;;;
2020/04/04 11:54:47;;;;;;;11.7;10.3;;;;;;;23.84;23.2666;941.3109;;;;
2020/04/04 11:57:12;;;;;;;12.3;10.1;;;;;;;24.53;23.10254;941.2661;;;;
2020/04/04 11:59:37;;;;;;;11.9;9.5;;;;;;;24.09;23.58594;941.1454;;;;
2020/04/04 12:02:02;;;;;;;11.1;9.9;;;;;;;23.25;24.8457;941.2148;;;;
2020/04/04 12:07:34;;;;;;;12.6;10;;;;;;;23.43;25.43164;941.1487;;;;
2020/04/04 12:09:23;;;;;;;13.3;9.6;;;;;;;23.44;24.03418;941.1733;;;;
2020/04/04 12:14:08;;;;;;;13.6;10.1;;;;;;;22.06;26.03418;941.189;;;;
2020/04/04 12:16:33;;;;;;;12.4;9.3;;;;;;;24.08;25.01074;941.1849;;;;
2020/04/04 12:18:58;;;;;;;12.2;10.7;;;;;;;23.78;25.3584;941.0916;;;;
2020/04/04 12:21:23;;;;;;;12.2;10.6;;;;;;;23.09;24.71973;941.0631;;;;
2020/04/04 12:23:48;;;;;;;12.3;9.2;;;;;;;24.92;22.5918;941.0391;;;;
2020/04/04 12:26:13;;;;;;;13.8;9.8;;;;;;;25.5;21.73535;940.9983;;;;
2020/04/04 12:28:39;;;;;;;12.9;9.6;;;;;;;25.5;23.24707;940.8867;;;;
2020/04/04 12:31:04;;;;;;;12.3;9.4;;;;;;;23.7;23.96484;940.9481;;;;
2020/04/04 12:33:28;;;;;;;10.8;9.7;;;;;;;22.44;25.65723;940.9196;;;;
2020/04/04 12:35:54;;;;;;;14;9.4;;;;;;;23.72;24.31934;940.9891;;;;
2020/04/04 12:38:19;;;;;;;12.5;9.9;;;;;;;22.93;24.0293;940.9328;;;;
2020/04/04 12:40:44;;;;;;;10.7;9.4;;;;;;;23.64;24.30371;940.9293;;;;
2020/04/04 12:43:09;;;;;;;11.4;9.8;;;;;;;22.55;25.08887;940.8828;;;;
2020/04/04 12:45:34;;;;;;;14.4;10.6;;;;;;;22.25;26.32715;940.9188;;;;
2020/04/04 12:47:59;;;;;;;14.4;9.5;;;;;;;21.74;27.57324;940.9534;;;;
2020/04/04 12:50:24;;;;;;;11.5;9.7;;;;;;;22.08;25.83594;940.9261;;;;
2020/04/04 12:52:52;;;;;;;15.4;9.7;;;;;;;22.2;26.38184;940.8924;;;;
2020/04/04 12:55:15;;;;;;;13.7;10.3;;;;;;;21.23;27.89258;940.9402;;;;
2020/04/04 12:57:40;;;;;;;14.2;10.3;;;;;;;21.12;26.64551;940.9793;;;;
2020/04/04 13:00:05;;;;;;;11.1;9.6;;;;;;;22.13;25.8623;940.9111;;;;
2020/04/04 13:02:30;;;;;;;12.8;10.3;;;;;;;22.46;25.8457;940.9272;;;;
2020/04/04 13:04:55;;;;;;;12.4;10.1;;;;;;;21.52;27.7002;940.9043;;;;
2020/04/04 13:07:20;;;;;;;13.6;10.2;;;;;;;20.71;28.68945;940.9361;;;;
2020/04/04 13:09:45;;;;;;;11.6;10;;;;;;;21.63;26.24219;940.8708;;;;
2020/04/04 13:12:10;;;;;;;15.5;10.7;;;;;;;22.06;26.47949;940.9648;;;;
2020/04/04 13:14:35;;;;;;;11.4;10.2;;;;;;;21.19;27.95996;940.8269;;;;
2020/04/04 13:17:00;;;;;;;14.7;11;;;;;;;21.75;26.36719;940.9118;;;;
2020/04/04 13:19:26;;;;;;;14.1;10.7;;;;;;;21.01;27.95996;940.9066;;;;
2020/04/04 13:21:51;;;;;;;12.9;10.8;;;;;;;20.68;27.9043;940.9661;;;;
2020/04/04 13:24:16;;;;;;;12.9;10.5;;;;;;;21.38;26.5332;940.8973;;;;
2020/04/04 13:26:41;;;;;;;11.3;10.2;;;;;;;21.84;26.4541;940.8258;;;;
2020/04/04 13:29:06;;;;;;;14.1;10.2;;;;;;;21.47;27.0293;940.8808;;;;
2020/04/04 13:31:31;;;;;;;12.3;10.5;;;;;;;21.38;26.79004;940.8861;;;;
2020/04/04 13:33:56;;;;;;;14.6;11.3;;;;;;;19.98;28.8291;940.8253;;;;
2020/04/04 13:36:21;;;;;;;12.7;10.6;;;;;;;20.19;28.8418;940.7963;;;;
2020/04/04 13:38:46;;;;;;;11.7;10.4;;;;;;;20.05;30.0127;940.7971;;;;
2020/04/04 13:41:12;;;;;;;14;10.6;;;;;;;19.73;29.12695;940.7957;;;;
2020/04/04 13:43:37;;;;;;;15.7;11.1;;;;;;;19.48;29.6582;940.8215;;;;
2020/04/04 13:46:02;;;;;;;11.8;10;;;;;;;19.66;29.13477;940.7932;;;;
2020/04/04 13:48:27;;;;;;;12.1;10.4;;;;;;;19.53;28.92773;940.7889;;;;
2020/04/04 13:50:52;;;;;;;12.1;10.5;;;;;;;19.3;29.29688;940.7834;;;;
2020/04/04 13:53:17;;;;;;;13.7;10.7;;;;;;;18.57;30.39941;940.7498;;;;
2020/04/04 13:55:42;;;;;;;15.5;10.7;;;;;;;18.15;30.66113;940.8473;;;;
2020/04/04 13:58:07;;;;;;;13.5;10.7;;;;;;;18.13;30.49707;940.845;;;;
2020/04/04 14:00:32;;;;;;;14;10.4;;;;;;;18.15;32.55469;940.8859;;;;
2020/04/04 14:02:57;;;;;;;13.9;11.1;;;;;;;17.66;32.51855;940.9131;;;;
2020/04/04 14:05:23;;;;;;;14.2;11.5;;;;;;;17.22;33.62207;940.8904;;;;